createdAt,value
2022-08-25T00:00:27.547Z,86.35
2022-08-25T00:02:55.531Z,82.58
2022-08-25T00:05:20.349Z,85.81
2022-08-25T00:07:45.324Z,83.08
2022-08-25T00:10:11.357Z,82.80
2022-08-25T00:12:35.110Z,83.37
2022-08-25T00:14:58.998Z,83.11
2022-08-25T00:17:22.674Z,87.61
2022-08-25T00:19:46.390Z,86.02
2022-08-25T00:22:10.225Z,87.61
2022-08-25T00:24:33.950Z,88.71
2022-08-25T00:27:01.912Z,88.13
2022-08-25T00:29:27.435Z,86.10
2022-08-25T00:31:52.447Z,85.96
2022-08-25T00:34:20.059Z,88.85
2022-08-25T00:36:44.343Z,88.93
2022-08-25T00:39:09.803Z,86.54
2022-08-25T00:41:35.342Z,88.13
2022-08-25T00:44:04.412Z,87.17
2022-08-25T00:46:31.985Z,87.27
2022-08-25T00:49:01.262Z,85.49
2022-08-25T00:51:33.850Z,87.91
2022-08-25T00:53:58.359Z,87.97
2022-08-25T00:56:22.282Z,89.57
2022-08-25T00:58:46.214Z,89.89
2022-08-25T01:01:11.802Z,91.57
2022-08-25T01:03:35.994Z,87.83
2022-08-25T01:05:59.680Z,89.47
2022-08-25T01:08:29.123Z,90.75
2022-08-25T01:10:53.469Z,92.00
2022-08-25T01:13:21.516Z,92.60
2022-08-25T01:15:45.800Z,90.35
2022-08-25T01:18:11.923Z,92.00
2022-08-25T01:20:35.734Z,89.75
2022-08-25T01:23:02.268Z,88.73
2022-08-25T01:25:36.403Z,88.98
2022-08-25T01:28:00.167Z,86.75
2022-08-25T01:30:24.062Z,88.04
2022-08-25T01:32:48.093Z,85.99
2022-08-25T01:35:11.743Z,85.24
2022-08-25T01:37:36.022Z,84.83
2022-08-25T01:40:01.110Z,91.64
2022-08-25T01:42:43.751Z,88.93
2022-08-25T01:45:10.362Z,86.35
2022-08-25T01:47:34.279Z,85.32
2022-08-25T01:49:57.960Z,90.51
2022-08-25T01:52:26.804Z,88.96
2022-08-25T01:54:50.483Z,89.68
2022-08-25T01:57:15.503Z,89.51
2022-08-25T01:59:39.364Z,91.41
2022-08-25T02:02:04.935Z,87.26
2022-08-25T02:04:32.324Z,87.97
2022-08-25T02:06:56.170Z,87.63
2022-08-25T02:09:20.110Z,86.05
2022-08-25T02:11:46.931Z,88.69
2022-08-25T02:14:14.159Z,92.29
2022-08-25T02:16:41.493Z,89.56
2022-08-25T02:19:07.628Z,88.24
2022-08-25T02:21:32.557Z,91.09
2022-08-25T02:23:56.923Z,89.16
2022-08-25T02:26:21.147Z,90.75
2022-08-25T02:28:46.166Z,88.91
2022-08-25T02:31:11.391Z,89.48
2022-08-25T02:33:35.149Z,89.59
2022-08-25T02:36:00.458Z,90.87
2022-08-25T02:38:24.094Z,92.13
2022-08-25T02:40:47.719Z,90.67
2022-08-25T02:43:11.541Z,93.63
2022-08-25T02:45:35.328Z,91.79
2022-08-25T02:48:00.513Z,91.47
2022-08-25T02:50:24.956Z,88.12
2022-08-25T02:52:50.700Z,88.21
2022-08-25T02:55:14.748Z,92.92
2022-08-25T02:57:38.465Z,94.08
2022-08-25T03:00:02.083Z,93.83
2022-08-25T03:02:26.054Z,93.07
2022-08-25T03:04:52.292Z,93.30
2022-08-25T03:07:19.158Z,93.29
2022-08-25T03:09:45.035Z,93.35
2022-08-25T03:12:09.731Z,90.66
2022-08-25T03:14:33.371Z,93.39
2022-08-25T03:16:57.170Z,94.11
2022-08-25T03:19:20.883Z,94.36
2022-08-25T03:21:46.242Z,94.06
2022-08-25T03:24:10.254Z,95.08
2022-08-25T03:26:51.711Z,95.88
2022-08-25T03:29:15.416Z,97.69
2022-08-25T03:31:40.095Z,96.85
2022-08-25T03:34:04.240Z,97.65
2022-08-25T03:36:28.899Z,97.26
2022-08-25T03:38:55.153Z,96.88
2022-08-25T03:41:22.578Z,95.95
2022-08-25T03:43:47.547Z,96.77
2022-08-25T03:46:20.618Z,96.99
2022-08-25T03:48:44.515Z,97.39
2022-08-25T03:51:08.335Z,96.72
2022-08-25T03:53:31.983Z,98.93
2022-08-25T03:55:57.752Z,99.19
2022-08-25T03:58:21.385Z,98.06
2022-08-25T04:00:45.131Z,98.64
2022-08-25T04:03:08.974Z,100.00
2022-08-25T04:05:32.966Z,100.00
2022-08-25T04:07:57.041Z,100.00
2022-08-25T04:10:20.880Z,100.00
2022-08-25T04:12:45.882Z,100.00
2022-08-25T04:15:11.540Z,99.79
2022-08-25T04:17:35.752Z,100.00
2022-08-25T04:19:59.450Z,100.00
2022-08-25T04:22:23.218Z,100.00
2022-08-25T04:24:47.112Z,100.00
2022-08-25T04:27:10.819Z,100.00
2022-08-25T04:29:36.542Z,100.00
2022-08-25T04:32:00.317Z,100.00
2022-08-25T04:34:31.106Z,100.00
2022-08-25T04:36:55.311Z,100.00
2022-08-25T04:39:20.864Z,100.00
2022-08-25T04:41:44.876Z,100.00
2022-08-25T04:44:08.551Z,100.00
2022-08-25T04:46:35.673Z,100.00
2022-08-25T04:49:01.301Z,100.00
2022-08-25T04:51:27.713Z,100.00
2022-08-25T04:53:52.085Z,100.00
2022-08-25T04:56:20.918Z,100.00
2022-08-25T04:58:46.368Z,100.00
2022-08-25T05:01:15.656Z,100.00
2022-08-25T05:03:40.787Z,100.00
2022-08-25T05:06:06.205Z,100.00
2022-08-25T05:08:30.288Z,100.00
2022-08-25T05:10:56.702Z,99.97
2022-08-25T05:13:20.766Z,98.78
2022-08-25T05:15:53.089Z,100.00
2022-08-25T05:18:18.219Z,99.78
2022-08-25T05:20:43.419Z,100.00
2022-08-25T05:23:07.303Z,100.00
2022-08-25T05:25:31.879Z,100.00
2022-08-25T05:27:55.602Z,99.60
2022-08-25T05:30:19.450Z,100.00
2022-08-25T05:32:43.194Z,100.00
2022-08-25T05:35:09.093Z,98.70
2022-08-25T05:37:35.132Z,99.77
2022-08-25T05:39:58.947Z,99.25
2022-08-25T05:42:24.072Z,99.83
2022-08-25T05:44:48.140Z,100.00
2022-08-25T05:47:11.960Z,99.52
2022-08-25T05:49:35.636Z,98.82
2022-08-25T05:51:59.301Z,98.80
2022-08-25T05:54:24.385Z,100.00
2022-08-25T05:56:48.186Z,100.00
2022-08-25T05:59:11.864Z,100.00
2022-08-25T06:01:52.848Z,100.00
2022-08-25T06:04:17.954Z,100.00
2022-08-25T06:06:42.230Z,100.00
2022-08-25T06:09:08.809Z,100.00
2022-08-25T06:11:33.838Z,100.00
2022-08-25T06:13:57.617Z,100.00
2022-08-25T06:16:21.322Z,100.00
2022-08-25T06:18:45.111Z,100.00
2022-08-25T06:21:14.225Z,100.00
2022-08-25T06:23:39.539Z,100.00
2022-08-25T06:26:03.590Z,100.00
2022-08-25T06:28:28.707Z,100.00
2022-08-25T06:30:52.367Z,100.00
2022-08-25T06:33:16.487Z,100.00
2022-08-25T06:35:43.646Z,100.00
2022-08-25T06:38:07.427Z,100.00
2022-08-25T06:40:31.307Z,100.00
2022-08-25T06:42:55.048Z,98.67
2022-08-25T06:45:21.093Z,99.65
2022-08-25T06:47:45.606Z,98.57
2022-08-25T06:50:10.431Z,98.40
2022-08-25T06:52:35.713Z,99.89
2022-08-25T06:54:59.515Z,97.67
2022-08-25T06:57:23.251Z,96.79
2022-08-25T06:59:47.276Z,96.42
2022-08-25T07:02:12.491Z,95.62
2022-08-25T07:04:39.564Z,95.02
2022-08-25T07:07:04.131Z,96.25
2022-08-25T07:09:27.931Z,96.07
2022-08-25T07:11:52.460Z,95.72
2022-08-25T07:14:18.701Z,95.55
2022-08-25T07:16:48.510Z,94.03
2022-08-25T07:19:14.765Z,93.87
2022-08-25T07:21:41.422Z,93.41
2022-08-25T07:24:09.229Z,95.26
2022-08-25T07:26:37.685Z,95.25
2022-08-25T07:29:02.515Z,94.97
2022-08-25T07:31:29.378Z,95.37
2022-08-25T07:34:10.823Z,95.16
2022-08-25T07:36:38.363Z,93.53
2022-08-25T07:39:05.982Z,92.46
2022-08-25T07:41:30.811Z,92.82
2022-08-25T07:43:56.994Z,92.52
2022-08-25T07:46:20.851Z,92.65
2022-08-25T07:48:44.609Z,90.70
2022-08-25T07:51:17.843Z,88.93
2022-08-25T07:53:43.644Z,90.54
2022-08-25T07:56:12.540Z,90.28
2022-08-25T07:58:36.215Z,90.23
2022-08-25T08:00:59.900Z,91.18
2022-08-25T08:03:44.693Z,88.26
2022-08-25T08:06:10.608Z,87.38
2022-08-25T08:08:34.424Z,87.28
2022-08-25T08:11:04.496Z,86.89
2022-08-25T08:13:28.935Z,86.11
2022-08-25T08:15:52.627Z,85.16
2022-08-25T08:18:17.069Z,84.98
2022-08-25T08:20:45.337Z,86.23
2022-08-25T08:23:09.083Z,84.31
2022-08-25T08:25:32.821Z,85.77
2022-08-25T08:27:58.451Z,84.53
2022-08-25T08:30:23.705Z,86.40
2022-08-25T08:33:09.073Z,86.20
2022-08-25T08:35:33.636Z,84.09
2022-08-25T08:37:57.326Z,84.84
2022-08-25T08:40:22.394Z,84.78
2022-08-25T08:43:04.086Z,84.38
2022-08-25T08:45:35.628Z,83.78
2022-08-25T08:48:36.953Z,82.56
2022-08-25T08:51:12.643Z,84.72
2022-08-25T08:53:45.489Z,81.97
2022-08-25T08:56:15.896Z,82.13
2022-08-25T08:58:50.093Z,80.01
2022-08-25T09:01:19.232Z,80.07
2022-08-25T09:03:47.764Z,79.91
2022-08-25T09:06:26.016Z,78.88
2022-08-25T09:08:50.008Z,79.67
2022-08-25T09:11:23.369Z,78.86
2022-08-25T09:14:10.662Z,79.33
2022-08-25T09:16:56.084Z,79.27
2022-08-25T09:19:48.417Z,79.48
2022-08-25T09:22:35.682Z,79.38
2022-08-25T09:25:16.341Z,78.67
2022-08-25T09:27:56.030Z,77.71
2022-08-25T09:30:25.184Z,77.29
2022-08-25T09:32:52.494Z,77.00
2022-08-25T09:35:21.444Z,77.54
2022-08-25T09:37:53.560Z,77.25
2022-08-25T09:40:17.705Z,78.47
2022-08-25T09:42:57.668Z,78.01
2022-08-25T09:45:39.592Z,75.72
2022-08-25T09:48:23.914Z,75.76
2022-08-25T09:50:47.964Z,74.39
2022-08-25T09:53:18.930Z,73.45
2022-08-25T09:55:48.511Z,75.67
2022-08-25T09:58:22.266Z,75.02
2022-08-25T10:01:14.232Z,73.56
2022-08-25T10:03:38.385Z,72.58
2022-08-25T10:06:13.260Z,75.06
2022-08-25T10:08:42.554Z,74.68
2022-08-25T10:11:10.151Z,75.93
2022-08-25T10:13:44.973Z,73.28
2022-08-25T10:16:24.291Z,73.12
2022-08-25T10:19:04.495Z,72.20
2022-08-25T10:21:28.250Z,71.96
2022-08-25T10:23:55.976Z,70.83
2022-08-25T10:26:34.791Z,68.95
2022-08-25T10:29:24.435Z,69.42
2022-08-25T10:31:58.229Z,67.26
2022-08-25T10:34:36.243Z,68.41
2022-08-25T10:37:15.359Z,67.12
2022-08-25T10:39:46.213Z,66.32
2022-08-25T10:42:33.858Z,66.46
2022-08-25T10:45:38.364Z,64.72
2022-08-25T10:48:46.643Z,65.64
2022-08-25T10:51:42.876Z,66.33
2022-08-25T10:54:18.943Z,67.19
2022-08-25T10:56:46.983Z,65.29
2022-08-25T10:59:34.708Z,66.93
2022-08-25T11:02:36.187Z,65.60
2022-08-25T11:05:07.899Z,64.54
2022-08-25T11:07:35.815Z,62.15
2022-08-25T11:10:05.345Z,62.67
2022-08-25T11:12:35.052Z,63.90
2022-08-25T11:15:02.677Z,63.51
2022-08-25T11:17:36.395Z,63.47
2022-08-25T11:20:15.295Z,63.64
2022-08-25T11:22:59.144Z,61.40
2022-08-25T11:25:30.367Z,60.92
2022-08-25T11:28:01.016Z,60.99
2022-08-25T11:30:25.920Z,61.37
2022-08-25T11:32:53.587Z,59.45
2022-08-25T11:35:21.663Z,63.09
2022-08-25T11:38:04.690Z,60.78
2022-08-25T11:40:45.576Z,59.79
2022-08-25T11:43:47.719Z,60.40
2022-08-25T11:46:32.714Z,58.07
2022-08-25T11:49:09.412Z,58.50
2022-08-25T11:51:42.504Z,59.14
2022-08-25T11:54:21.860Z,59.70
2022-08-25T11:56:55.087Z,56.96
2022-08-25T12:00:03.694Z,58.12
2022-08-25T12:02:36.443Z,54.28
2022-08-25T12:05:00.669Z,55.51
2022-08-25T12:07:32.179Z,57.85
2022-08-25T12:10:57.026Z,54.53
2022-08-25T12:13:45.140Z,53.40
2022-08-25T12:16:38.334Z,53.81
2022-08-25T12:19:49.833Z,55.20
2022-08-25T12:22:55.790Z,52.91
2022-08-25T12:25:47.419Z,56.89
2022-08-25T12:28:35.022Z,53.78
2022-08-25T12:31:05.824Z,53.38
2022-08-25T12:33:47.407Z,55.41
2022-08-25T12:36:31.124Z,53.29
2022-08-25T12:38:54.931Z,53.81
2022-08-25T12:41:24.166Z,53.77
2022-08-25T12:43:50.679Z,52.78
2022-08-25T12:46:40.570Z,51.36
2022-08-25T12:49:14.344Z,51.85
2022-08-25T12:51:57.495Z,52.59
2022-08-25T12:54:37.837Z,52.58
2022-08-25T12:57:05.211Z,53.19
2022-08-25T12:59:37.418Z,52.88
2022-08-25T13:02:37.460Z,50.93
2022-08-25T13:05:40.801Z,51.01
2022-08-25T13:08:57.633Z,51.20
2022-08-25T13:11:29.367Z,51.67
2022-08-25T13:14:06.589Z,50.92
2022-08-25T13:16:31.338Z,50.26
2022-08-25T13:18:59.015Z,49.90
2022-08-25T13:21:31.458Z,49.86
2022-08-25T13:24:04.700Z,49.52
2022-08-25T13:26:32.543Z,52.76
2022-08-25T13:29:05.166Z,48.75
2022-08-25T13:31:32.525Z,50.91
2022-08-25T13:33:59.524Z,49.31
2022-08-25T13:36:47.122Z,49.11
2022-08-25T13:39:38.992Z,49.93
2022-08-25T13:42:09.248Z,51.28
2022-08-25T13:44:39.035Z,51.09
2022-08-25T13:47:11.888Z,51.88
2022-08-25T13:49:35.963Z,54.12
2022-08-25T13:52:01.055Z,50.34
2022-08-25T13:54:31.346Z,51.46
2022-08-25T13:56:55.845Z,53.27
2022-08-25T13:59:27.375Z,52.41
2022-08-25T14:01:52.438Z,54.00
2022-08-25T14:04:51.754Z,52.89
2022-08-25T14:07:34.176Z,52.63
2022-08-25T14:10:01.593Z,52.00
2022-08-25T14:12:37.968Z,52.69
2022-08-25T14:15:07.871Z,51.93
2022-08-25T14:17:40.670Z,53.36
2022-08-25T14:20:05.862Z,50.84
2022-08-25T14:22:30.924Z,50.66
2022-08-25T14:24:56.170Z,49.58
2022-08-25T14:27:20.204Z,51.57
2022-08-25T14:29:43.985Z,49.81
2022-08-25T14:32:08.360Z,51.56
2022-08-25T14:34:38.659Z,52.16
2022-08-25T14:37:04.821Z,50.94
2022-08-25T14:39:30.284Z,50.63
2022-08-25T14:41:54.207Z,49.35
2022-08-25T14:44:18.363Z,50.42
2022-08-25T14:46:47.890Z,48.94
2022-08-25T14:49:17.275Z,49.51
2022-08-25T14:51:49.290Z,50.65
2022-08-25T14:54:18.634Z,52.05
2022-08-25T14:56:44.344Z,53.58
2022-08-25T14:59:08.187Z,50.95
2022-08-25T15:01:32.585Z,51.72
2022-08-25T15:04:02.485Z,50.89
2022-08-25T15:06:26.397Z,52.63
2022-08-25T15:09:08.144Z,50.65
2022-08-25T15:11:35.349Z,51.46
2022-08-25T15:14:01.583Z,51.21
2022-08-25T15:16:34.079Z,51.31
2022-08-25T15:18:59.171Z,51.85
2022-08-25T15:21:22.975Z,50.29
2022-08-25T15:23:46.787Z,51.18
2022-08-25T15:26:15.192Z,51.38
2022-08-25T15:28:39.302Z,50.71
2022-08-25T15:31:04.423Z,51.39
2022-08-25T15:33:32.121Z,51.25
2022-08-25T15:35:56.706Z,51.09
2022-08-25T15:38:20.738Z,51.81
2022-08-25T15:40:44.455Z,53.06
2022-08-25T15:43:11.044Z,51.87
2022-08-25T15:45:36.070Z,51.82
2022-08-25T15:48:01.512Z,51.69
2022-08-25T15:50:27.904Z,52.16
2022-08-25T15:52:51.683Z,52.59
2022-08-25T15:55:16.428Z,51.60
2022-08-25T15:57:40.439Z,52.01
2022-08-25T16:00:10.058Z,53.10
2022-08-25T16:02:34.788Z,54.04
2022-08-25T16:04:59.859Z,54.28
2022-08-25T16:07:23.623Z,53.73
2022-08-25T16:09:48.224Z,53.98
2022-08-25T16:12:14.983Z,53.85
2022-08-25T16:14:39.543Z,53.52
2022-08-25T16:17:03.236Z,52.91
2022-08-25T16:19:27.552Z,52.91
2022-08-25T16:21:52.676Z,53.08
2022-08-25T16:24:16.492Z,52.52
2022-08-25T16:26:47.957Z,53.28
2022-08-25T16:29:14.522Z,53.95
2022-08-25T16:31:38.460Z,54.33
2022-08-25T16:34:02.496Z,54.86
2022-08-25T16:36:28.080Z,55.17
2022-08-25T16:38:54.039Z,54.55
2022-08-25T16:41:22.369Z,55.24
2022-08-25T16:43:46.291Z,54.57
2022-08-25T16:46:13.372Z,54.30
2022-08-25T16:48:38.288Z,54.45
2022-08-25T16:51:02.312Z,55.27
2022-08-25T16:53:45.471Z,54.59
2022-08-25T16:56:13.951Z,54.18
2022-08-25T16:58:38.454Z,54.34
2022-08-25T17:01:09.524Z,54.92
2022-08-25T17:03:34.949Z,55.59
2022-08-25T17:06:01.042Z,54.80
2022-08-25T17:08:30.960Z,55.94
2022-08-25T17:10:54.832Z,55.52
2022-08-25T17:13:19.895Z,55.06
2022-08-25T17:15:46.912Z,55.35
2022-08-25T17:18:12.829Z,55.74
2022-08-25T17:20:38.282Z,56.68
2022-08-25T17:23:02.191Z,55.52
2022-08-25T17:25:37.355Z,55.63
2022-08-25T17:28:07.221Z,55.93
2022-08-25T17:30:40.102Z,57.83
2022-08-25T17:33:04.143Z,56.85
2022-08-25T17:35:27.919Z,57.61
2022-08-25T17:37:51.659Z,56.75
2022-08-25T17:40:17.228Z,57.59
2022-08-25T17:42:41.278Z,57.74
2022-08-25T17:45:06.717Z,58.13
2022-08-25T17:47:32.221Z,58.01
2022-08-25T17:49:57.179Z,58.26
2022-08-25T17:52:25.468Z,58.61
2022-08-25T17:54:49.533Z,58.95
2022-08-25T17:57:16.830Z,58.46
2022-08-25T17:59:40.690Z,59.12
2022-08-25T18:02:04.866Z,58.65
2022-08-25T18:04:30.038Z,59.17
2022-08-25T18:06:53.863Z,59.21
2022-08-25T18:09:19.004Z,60.55
2022-08-25T18:11:43.265Z,60.82
2022-08-25T18:14:07.002Z,60.55
2022-08-25T18:16:34.759Z,60.42
2022-08-25T18:18:58.959Z,61.92
2022-08-25T18:21:25.572Z,62.03
2022-08-25T18:23:55.964Z,61.95
2022-08-25T18:26:21.909Z,61.71
2022-08-25T18:28:49.335Z,61.89
2022-08-25T18:31:13.788Z,61.76
2022-08-25T18:33:41.594Z,62.30
2022-08-25T18:36:05.852Z,62.48
2022-08-25T18:38:48.342Z,64.10
2022-08-25T18:41:13.158Z,64.33
2022-08-25T18:43:37.347Z,63.50
2022-08-25T18:46:04.593Z,64.39
2022-08-25T18:48:29.266Z,63.81
2022-08-25T18:50:54.625Z,63.55
2022-08-25T18:53:19.209Z,64.10
2022-08-25T18:56:01.877Z,65.44
2022-08-25T18:58:28.301Z,65.72
2022-08-25T19:00:52.600Z,66.02
2022-08-25T19:03:18.593Z,65.96
2022-08-25T19:05:45.953Z,66.95
2022-08-25T19:08:21.817Z,66.17
2022-08-25T19:10:50.845Z,66.91
2022-08-25T19:13:15.994Z,66.44
2022-08-25T19:15:41.903Z,67.04
2022-08-25T19:18:09.829Z,67.40
2022-08-25T19:20:35.043Z,67.58
2022-08-25T19:22:59.727Z,67.45
2022-08-25T19:25:25.095Z,68.80
2022-08-25T19:27:58.532Z,68.28
2022-08-25T19:30:29.717Z,68.89
2022-08-25T19:32:54.583Z,67.97
2022-08-25T19:35:28.008Z,69.24
2022-08-25T19:37:54.923Z,69.69
2022-08-25T19:40:20.422Z,69.75
2022-08-25T19:42:44.084Z,69.37
2022-08-25T19:45:12.002Z,69.14
2022-08-25T19:47:37.683Z,70.82
2022-08-25T19:50:01.366Z,70.97
2022-08-25T19:52:26.559Z,70.60
2022-08-25T19:54:50.485Z,69.59
2022-08-25T19:57:28.657Z,71.46
2022-08-25T20:00:00.540Z,71.15
2022-08-25T20:02:30.019Z,71.29
2022-08-25T20:04:59.552Z,71.33
2022-08-25T20:07:27.610Z,70.73
2022-08-25T20:09:51.840Z,70.88
2022-08-25T20:14:44.151Z,71.31
2022-08-25T20:17:14.562Z,71.92
2022-08-25T20:19:48.746Z,72.02
2022-08-25T20:22:17.754Z,72.12
2022-08-25T20:24:55.760Z,72.02
2022-08-25T20:27:22.015Z,72.77
2022-08-25T20:29:46.103Z,72.76
2022-08-25T20:32:09.911Z,72.63
2022-08-25T20:34:35.237Z,73.32
2022-08-25T20:36:59.200Z,72.47
2022-08-25T20:39:25.254Z,73.19
2022-08-25T20:41:49.082Z,74.23
2022-08-25T20:44:12.810Z,73.88
2022-08-25T20:46:36.895Z,73.33
2022-08-25T20:49:02.031Z,74.46
2022-08-25T20:51:26.807Z,74.19
2022-08-25T20:53:50.469Z,74.13
2022-08-25T20:56:18.935Z,74.37
2022-08-25T20:58:43.743Z,74.50
2022-08-25T21:01:09.312Z,74.09
2022-08-25T21:03:34.344Z,74.68
2022-08-25T21:05:58.352Z,75.27
2022-08-25T21:08:22.017Z,75.16
2022-08-25T21:10:47.896Z,75.30
2022-08-25T21:13:12.971Z,75.62
2022-08-25T21:15:36.690Z,74.91
2022-08-25T21:18:00.450Z,74.80
2022-08-25T21:20:25.956Z,75.06
2022-08-25T21:22:49.586Z,75.27
2022-08-25T21:25:14.583Z,76.35
2022-08-25T21:27:38.214Z,76.55
2022-08-25T21:30:03.787Z,76.05
2022-08-25T21:32:27.495Z,76.62
2022-08-25T21:34:54.208Z,75.72
2022-08-25T21:37:17.877Z,76.96
2022-08-25T21:39:41.523Z,76.22
2022-08-25T21:42:07.226Z,76.49
2022-08-25T21:44:32.835Z,78.92
2022-08-25T21:46:58.319Z,78.60
2022-08-25T21:49:22.175Z,79.08
2022-08-25T21:51:47.107Z,78.56
2022-08-25T21:54:15.378Z,80.67
2022-08-25T21:56:42.022Z,80.10
2022-08-25T21:59:08.032Z,80.26
2022-08-25T22:01:31.734Z,78.38
2022-08-25T22:03:56.826Z,77.33
2022-08-25T22:06:22.648Z,78.86
2022-08-25T22:08:46.335Z,78.67
2022-08-25T22:11:11.987Z,81.10
2022-08-25T22:13:38.646Z,81.53
2022-08-25T22:16:05.454Z,80.20
2022-08-25T22:18:29.926Z,79.20
2022-08-25T22:20:55.039Z,82.40
2022-08-25T22:23:20.713Z,81.68
2022-08-25T22:25:44.445Z,81.51
2022-08-25T22:28:08.410Z,79.12
2022-08-25T22:30:39.682Z,81.48
2022-08-25T22:33:05.037Z,81.55
2022-08-25T22:35:35.691Z,80.62
2022-08-25T22:38:01.095Z,80.45
2022-08-25T22:40:25.240Z,82.13
2022-08-25T22:42:50.616Z,80.79
2022-08-25T22:45:14.353Z,79.23
2022-08-25T22:47:38.819Z,81.90
2022-08-25T22:50:06.427Z,81.00
2022-08-25T22:52:33.185Z,79.65
2022-08-25T22:54:58.935Z,80.07
2022-08-25T22:57:22.768Z,82.26
2022-08-25T22:59:46.451Z,82.56
2022-08-25T23:02:13.450Z,82.23
2022-08-25T23:04:41.571Z,79.66
2022-08-25T23:07:07.978Z,80.88
2022-08-25T23:09:33.776Z,81.75
2022-08-25T23:11:59.972Z,78.63
2022-08-25T23:14:24.722Z,80.95
2022-08-25T23:16:51.137Z,80.97
2022-08-25T23:19:15.976Z,78.77
2022-08-25T23:21:57.017Z,80.24
2022-08-25T23:24:29.262Z,80.40
2022-08-25T23:26:54.200Z,80.87
2022-08-25T23:29:19.558Z,79.38
2022-08-25T23:31:44.267Z,78.43
2022-08-25T23:34:08.332Z,78.71
2022-08-25T23:36:32.342Z,79.26
2022-08-25T23:38:56.211Z,80.37
2022-08-25T23:41:23.695Z,79.56
2022-08-25T23:43:49.039Z,80.75
2022-08-25T23:46:14.756Z,82.06
2022-08-25T23:48:38.768Z,80.10
2022-08-25T23:51:02.628Z,79.96
2022-08-25T23:53:26.911Z,79.65
2022-08-25T23:55:53.072Z,78.87
2022-08-25T23:58:17.940Z,79.99
